Terminal Aerodrome Forecast
Issued by NWS

Home | Current Version | Previous Version | Text Only | Print | Product List | Glossary On
Versions: 1 2 3 4 5 6 7 8 9 10 11 12 13 14 15 16 17 18 19 20 21 22 23 24 25 26 27 28 29
572
FTUS46 KSEW 191514 AAA
TAFSEA
TAF AMD
KSEA 191514Z 1915/2018 17006KT P6SM BKN060 OVC120
     FM192000 18012G20KT P6SM VCSH SCT040 OVC070
     FM192300 18016G25KT 6SM -RA BR SCT008 BKN015 OVC025
     FM200200 18015G25KT 4SM -RA BR BKN008 OVC015
     FM200500 20010KT P6SM -SHRA SCT010 BKN018 OVC025
     FM201400 VRB04KT P6SM SCT020 SCT035=

USA.gov is the U.S. government's official web portal to all federal, state and local government web resources and services.